Map

Track Data

SID SEASON NUMBER BASIN SUBBASIN NAME ISO_TIME NATURE LAT LON WMO_WIND WMO_PRES WMO_AGENCY TRACK_TYPE DIST2LAND LANDFALL IFLAG USA_AGENCY USA_ATCF_ID USA_LAT USA_LON USA_RECORD USA_STATUS USA_WIND USA_PRES USA_SSHS USA_R34_NE USA_R34_SE USA_R34_SW USA_R34_NW USA_R50_NE USA_R50_SE USA_R50_SW USA_R50_NW USA_R64_NE USA_R64_SE USA_R64_SW USA_R64_NW USA_POCI USA_ROCI USA_RMW USA_EYE TOKYO_LAT TOKYO_LON TOKYO_GRADE TOKYO_WIND TOKYO_PRES TOKYO_R50_DIR TOKYO_R50_LONG TOKYO_R50_SHORT TOKYO_R30_DIR TOKYO_R30_LONG TOKYO_R30_SHORT TOKYO_LAND CMA_LAT CMA_LON CMA_CAT CMA_WIND CMA_PRES HKO_LAT HKO_LON HKO_CAT HKO_WIND HKO_PRES NEWDELHI_LAT NEWDELHI_LON NEWDELHI_GRADE NEWDELHI_WIND NEWDELHI_PRES NEWDELHI_CI NEWDELHI_DP NEWDELHI_POCI REUNION_LAT REUNION_LON REUNION_TYPE REUNION_WIND REUNION_PRES REUNION_TNUM REUNION_CI REUNION_RMW REUNION_R34_NE REUNION_R34_SE REUNION_R34_SW REUNION_R34_NW REUNION_R50_NE REUNION_R50_SE REUNION_R50_SW REUNION_R50_NW REUNION_R64_NE REUNION_R64_SE REUNION_R64_SW REUNION_R64_NW BOM_LAT BOM_LON BOM_TYPE BOM_WIND BOM_PRES BOM_TNUM BOM_CI BOM_RMW BOM_R34_NE BOM_R34_SE BOM_R34_SW BOM_R34_NW BOM_R50_NE BOM_R50_SE BOM_R50_SW BOM_R50_NW BOM_R64_NE BOM_R64_SE BOM_R64_SW BOM_R64_NW BOM_ROCI BOM_POCI BOM_EYE BOM_POS_METHOD BOM_PRES_METHOD NADI_LAT NADI_LON NADI_CAT NADI_WIND NADI_PRES WELLINGTON_LAT WELLINGTON_LON WELLINGTON_WIND WELLINGTON_PRES DS824_LAT DS824_LON DS824_STAGE DS824_WIND DS824_PRES TD9636_LAT TD9636_LON TD9636_STAGE TD9636_WIND TD9636_PRES TD9635_LAT TD9635_LON TD9635_WIND TD9635_PRES TD9635_ROCI NEUMANN_LAT NEUMANN_LON NEUMANN_CLASS NEUMANN_WIND NEUMANN_PRES MLC_LAT MLC_LON MLC_CLASS MLC_WIND MLC_PRES USA_GUST BOM_GUST BOM_GUST_PER REUNION_GUST REUNION_GUST_PER USA_SEAHGT USA_SEARAD_NE USA_SEARAD_SE USA_SEARAD_SW USA_SEARAD_NW STORM_SPEED STORM_DIR
1988285N09318 1988 92 NA NA JOAN:MIRIAM 1988-10-10 18:00:00 TS 8.90000 -42.2000 25 1010 hurdat_atl main 1130 1078 O_____________ hurdat_atl AL111988 8.90000 -42.2000 TD 25 1010 -1 15 293
1988285N09318 1988 92 NA NA JOAN:MIRIAM 1988-10-10 21:00:00 TS 9.20027 -42.8998 main 1078 1030 P_____________ AL111988 9.20027 -42.8998 TD 27 1009 -1 15 293
1988285N09318 1988 92 NA NA JOAN:MIRIAM 1988-10-11 00:00:00 TS 9.50000 -43.6000 30 1008 hurdat_atl main 1030 988 O_____________ hurdat_atl AL111988 9.50000 -43.6000 TD 30 1008 -1 15 293
1988285N09318 1988 92 NA NA JOAN:MIRIAM 1988-10-11 03:00:00 TS 9.79986 -44.3001 main 988 951 P_____________ AL111988 9.79986 -44.3001 TD 32 1006 -1 15 294
1988285N09318 1988 92 NA NA JOAN:MIRIAM 1988-10-11 06:00:00 TS 10.1000 -45.0000 35 1005 hurdat_atl main 951 921 O_____________ hurdat_atl AL111988 10.1000 -45.0000 TS 35 1005 0 15 294
1988285N09318 1988 92 NA NA JOAN:MIRIAM 1988-10-11 09:00:00 TS 10.4073 -45.6926 main 921 897 P_____________ AL111988 10.4073 -45.6926 TS 37 1004 0 15 294
1988285N09318 1988 92 NA NA JOAN:MIRIAM 1988-10-11 12:00:00 TS 10.7000 -46.4000 40 1003 hurdat_atl main 897 872 O_____________ hurdat_atl AL111988 10.7000 -46.4000 TS 40 1003 0 16 291
1988285N09318 1988 92 NA NA JOAN:MIRIAM 1988-10-11 15:00:00 TS 10.9726 -47.1725 main 876 848 P_____________ AL111988 10.9726 -47.1725 TS 42 1001 0 16 289
1988285N09318 1988 92 NA NA JOAN:MIRIAM 1988-10-11 18:00:00 TS 11.2000 -47.9000 45 1000 hurdat_atl main 848 825 O_____________ hurdat_atl AL111988 11.2000 -47.9000 TS 45 1000 0 13 287
1988285N09318 1988 92 NA NA JOAN:MIRIAM 1988-10-11 21:00:00 TS 11.3647 -48.4802 main 828 809 P_____________ AL111988 11.3647 -48.4802 TS 47 999 0 11 286
1988285N09318 1988 92 NA NA JOAN:MIRIAM 1988-10-12 00:00:00 TS 11.5000 -49.0000 50 999 hurdat_atl main 809 793 O_____________ hurdat_atl AL111988 11.5000 -49.0000 TS 50 999 0 11 285
1988285N09318 1988 92 NA NA JOAN:MIRIAM 1988-10-12 03:00:00 TS 11.6499 -49.5426 main 793 784 P_____________ AL111988 11.6499 -49.5426 TS 47 999 0 11 286
1988285N09318 1988 92 NA NA JOAN:MIRIAM 1988-10-12 06:00:00 TS 11.8000 -50.1000 45 1000 hurdat_atl main 786 773 O_____________ hurdat_atl AL111988 11.8000 -50.1000 TS 45 1000 0 12 285
1988285N09318 1988 92 NA NA JOAN:MIRIAM 1988-10-12 09:00:00 TS 11.9574 -50.6925 main 783 763 P_____________ AL111988 11.9574 -50.6925 TS 45 1001 0 12 284
1988285N09318 1988 92 NA NA JOAN:MIRIAM 1988-10-12 12:00:00 TS 12.1000 -51.3000 45 1003 hurdat_atl main 764 749 O_____________ hurdat_atl AL111988 12.1000 -51.3000 TS 45 1003 0 12 282
1988285N09318 1988 92 NA NA JOAN:MIRIAM 1988-10-12 15:00:00 TS 12.2148 -51.8925 main 749 740 P_____________ AL111988 12.2148 -51.8925 TS 42 1004 0 12 280
1988285N09318 1988 92 NA NA JOAN:MIRIAM 1988-10-12 18:00:00 TS 12.3000 -52.5000 40 1006 hurdat_atl main 740 728 O_____________ hurdat_atl AL111988 12.3000 -52.5000 TS 40 1006 0 12 277
1988285N09318 1988 92 NA NA JOAN:MIRIAM 1988-10-12 21:00:00 TS 12.3575 -53.1576 main 736 729 P_____________ AL111988 12.3575 -53.1576 TS 40 1006 0 13 275
1988285N09318 1988 92 NA NA JOAN:MIRIAM 1988-10-13 00:00:00 TS 12.4000 -53.8000 40 1007 hurdat_atl main 729 712 O_____________ hurdat_atl AL111988 12.4000 -53.8000 TS 40 1007 0 12 274
1988285N09318 1988 92 NA NA JOAN:MIRIAM 1988-10-13 03:00:00 TS 12.4498 -54.3650 main 704 674 P_____________ AL111988 12.4498 -54.3650 TS 40 1007 0 11 275
1988285N09318 1988 92 NA NA JOAN:MIRIAM 1988-10-13 06:00:00 TS 12.5000 -54.9000 40 1007 hurdat_atl main 674 639 O_____________ hurdat_atl AL111988 12.5000 -54.9000 TS 40 1007 0 11 275
1988285N09318 1988 92 NA NA JOAN:MIRIAM 1988-10-13 09:00:00 TS 12.5499 -55.4500 main 632 584 P_____________ AL111988 12.5499 -55.4500 TS 40 1006 0 11 275
1988285N09318 1988 92 NA NA JOAN:MIRIAM 1988-10-13 12:00:00 TS 12.6000 -56.0000 40 1006 hurdat_atl main 584 539 O_____________ hurdat_atl AL111988 12.6000 -56.0000 TS 40 1006 0 11 276
1988285N09318 1988 92 NA NA JOAN:MIRIAM 1988-10-13 15:00:00 TS 12.6648 -56.5424 main 539 480 P_____________ AL111988 12.6648 -56.5424 TS 40 1005 0 11 275
1988285N09318 1988 92 NA NA JOAN:MIRIAM 1988-10-13 18:00:00 TS 12.7000 -57.1000 40 1005 hurdat_atl main 480 423 O_____________ hurdat_atl AL111988 12.7000 -57.1000 TS 40 1005 0 11 270
1988285N09318 1988 92 NA NA JOAN:MIRIAM 1988-10-13 21:00:00 TS 12.6725 -57.7000 main 423 363 P_____________ AL111988 12.6725 -57.7000 TS 40 1004 0 12 265
1988285N09318 1988 92 NA NA JOAN:MIRIAM 1988-10-14 00:00:00 TS 12.6000 -58.3000 40 1003 hurdat_atl main 363 305 O_____________ hurdat_atl AL111988 12.6000 -58.3000 TS 40 1003 0 12 262
1988285N09318 1988 92 NA NA JOAN:MIRIAM 1988-10-14 03:00:00 TS 12.5075 -58.8950 main 305 258 P_____________ AL111988 12.5075 -58.8950 TS 40 1002 0 11 259
1988285N09318 1988 92 NA NA JOAN:MIRIAM 1988-10-14 06:00:00 TS 12.4000 -59.4000 40 1002 hurdat_atl main 258 228 O_____________ hurdat_atl AL111988 12.4000 -59.4000 TS 40 1002 0 8 256
1988285N09318 1988 92 NA CS JOAN:MIRIAM 1988-10-14 09:00:00 TS 12.2998 -59.7224 main 228 200 P_____________ AL111988 12.2998 -59.7224 TS 42 1001 0 6 251
1988285N09318 1988 92 NA CS JOAN:MIRIAM 1988-10-14 12:00:00 TS 12.2000 -60.0000 45 1001 hurdat_atl main 200 169 O_____________ hurdat_atl AL111988 12.2000 -60.0000 TS 45 1001 0 7 251
1988285N09318 1988 92 NA CS JOAN:MIRIAM 1988-10-14 15:00:00 TS 12.0775 -60.3926 main 169 147 P_____________ AL111988 12.0775 -60.3926 TS 45 1001 0 8 256
1988285N09318 1988 92 NA CS JOAN:MIRIAM 1988-10-14 18:00:00 TS 12.0000 -60.8000 45 1001 hurdat_atl main 147 145 O_____________ hurdat_atl AL111988 12.0000 -60.8000 TS 45 1001 0 6 267
1988285N09318 1988 92 NA CS JOAN:MIRIAM 1988-10-14 21:00:00 TS 12.0451 -61.0075 main 145 145 P_____________ AL111988 12.0451 -61.0075 TS 45 1002 0 7 278
1988285N09318 1988 92 NA CS JOAN:MIRIAM 1988-10-15 00:00:00 TS 12.1000 -61.5000 45 1003 hurdat_atl main 156 156 O_____________ hurdat_atl AL111988 12.1000 -61.5000 TS 45 1003 0 12 274
1988285N09318 1988 92 NA CS JOAN:MIRIAM 1988-10-15 01:00:00 TS 12.1000 -61.8000 45 1003 hurdat_atl main 157 156 O_____________ hurdat_atl AL111988 12.1000 -61.8000 L TS 45 1003 0 15 270
1988285N09318 1988 92 NA CS JOAN:MIRIAM 1988-10-15 03:00:00 TS 12.1035 -62.2781 main 156 156 P_____________ AL111988 12.1035 -62.2781 TS 45 1003 0 12 270
1988285N09318 1988 92 NA CS JOAN:MIRIAM 1988-10-15 06:00:00 TS 12.1000 -62.8000 45 1004 hurdat_atl main 156 156 O_____________ hurdat_atl AL111988 12.1000 -62.8000 TS 45 1004 0 10 267
1988285N09318 1988 92 NA CS JOAN:MIRIAM 1988-10-15 09:00:00 TS 12.0580 -63.3092 main 158 149 P_____________ AL111988 12.0580 -63.3092 TS 45 1004 0 10 264
1988285N09318 1988 92 NA CS JOAN:MIRIAM 1988-10-15 12:00:00 TS 12.0000 -63.8000 45 1004 hurdat_atl main 157 145 O_____________ hurdat_atl AL111988 12.0000 -63.8000 TS 45 1004 0 10 263
1988285N09318 1988 92 NA CS JOAN:MIRIAM 1988-10-15 15:00:00 TS 11.9349 -64.3351 main 146 146 P_____________ AL111988 11.9349 -64.3351 TS 45 1003 0 11 265
1988285N09318 1988 92 NA CS JOAN:MIRIAM 1988-10-15 18:00:00 TS 11.9000 -64.9000 45 1003 hurdat_atl main 164 155 O_____________ hurdat_atl AL111988 11.9000 -64.9000 TS 45 1003 0 11 270
1988285N09318 1988 92 NA CS JOAN:MIRIAM 1988-10-15 21:00:00 TS 11.9425 -65.4999 main 155 152 P_____________ AL111988 11.9425 -65.4999 TS 45 1002 0 12 275
1988285N09318 1988 92 NA CS JOAN:MIRIAM 1988-10-16 00:00:00 TS 12.0000 -66.1000 45 1002 hurdat_atl main 156 156 O_____________ hurdat_atl AL111988 12.0000 -66.1000 TS 45 1002 0 11 274
1988285N09318 1988 92 NA CS JOAN:MIRIAM 1988-10-16 03:00:00 TS 12.0149 -66.6650 main 156 156 P_____________ AL111988 12.0149 -66.6650 TS 47 1001 0 11 270
1988285N09318 1988 92 NA CS JOAN:MIRIAM 1988-10-16 06:00:00 TS 12.0000 -67.2000 50 1001 hurdat_atl main 158 109 O_____________ hurdat_atl AL111988 12.0000 -67.2000 TS 50 1001 0 10 266
1988285N09318 1988 92 NA CS JOAN:MIRIAM 1988-10-16 09:00:00 TS 11.9424 -67.7076 main 109 80 P_____________ AL111988 11.9424 -67.7076 TS 50 1000 0 10 264
1988285N09318 1988 92 NA CS JOAN:MIRIAM 1988-10-16 12:00:00 TS 11.9000 -68.2000 50 1000 hurdat_atl main 80 57 O_____________ hurdat_atl AL111988 11.9000 -68.2000 TS 50 1000 0 10 270
1988285N09318 1988 92 NA CS JOAN:MIRIAM 1988-10-16 15:00:00 TS 11.9424 -68.6999 main 57 55 P_____________ AL111988 11.9424 -68.6999 TS 50 999 0 10 276
1988285N09318 1988 92 NA CS JOAN:MIRIAM 1988-10-16 18:00:00 TS 12.0000 -69.2000 50 999 hurdat_atl main 65 10 O_____________ hurdat_atl AL111988 12.0000 -69.2000 TS 50 999 0 10 274
1988285N09318 1988 92 NA CS JOAN:MIRIAM 1988-10-16 21:00:00 TS 12.0074 -69.7000 main 10 0 P_____________ AL111988 12.0074 -69.7000 TS 52 998 0 10 270
1988285N09318 1988 92 NA NA JOAN:MIRIAM 1988-10-17 00:00:00 TS 12.0000 -70.2000 55 998 hurdat_atl main 0 0 O_____________ hurdat_atl AL111988 12.0000 -70.2000 TS 55 998 0 10 270
1988285N09318 1988 92 NA CS JOAN:MIRIAM 1988-10-17 03:00:00 TS 12.0074 -70.7075 main 44 0 P_____________ AL111988 12.0074 -70.7075 TS 55 997 0 10 270
1988285N09318 1988 92 NA CS JOAN:MIRIAM 1988-10-17 06:00:00 TS 12.0000 -71.2000 55 997 hurdat_atl main 0 0 O_____________ hurdat_atl AL111988 12.0000 -71.2000 L TS 55 997 0 9 267
1988285N09318 1988 92 NA NA JOAN:MIRIAM 1988-10-17 09:00:00 TS 11.9574 -71.6575 main 0 0 P_____________ AL111988 11.9574 -71.6575 TS 57 996 0 9 264
1988285N09318 1988 92 NA NA JOAN:MIRIAM 1988-10-17 12:00:00 TS 11.9000 -72.1000 60 995 hurdat_atl main 0 0 O_____________ hurdat_atl AL111988 11.9000 -72.1000 TS 60 995 0 9 262
1988285N09318 1988 92 NA CS JOAN:MIRIAM 1988-10-17 15:00:00 TS 11.8424 -72.5425 main 0 0 P_____________ AL111988 11.8424 -72.5425 TS 60 994 0 9 264
1988285N09318 1988 92 NA CS JOAN:MIRIAM 1988-10-17 18:00:00 TS 11.8000 -73.0000 60 993 hurdat_atl main 24 24 O_____________ hurdat_atl AL111988 11.8000 -73.0000 TS 60 993 0 9 267
1988285N09318 1988 92 NA CS JOAN:MIRIAM 1988-10-17 21:00:00 TS 11.8000 -73.4924 main 60 60 P_____________ AL111988 11.8000 -73.4924 TS 62 991 0 10 270
1988285N09318 1988 92 NA CS JOAN:MIRIAM 1988-10-18 00:00:00 TS 11.8000 -74.0000 65 990 hurdat_atl main 67 67 O_____________ hurdat_atl AL111988 11.8000 -74.0000 HU 65 990 1 10 268
1988285N09318 1988 92 NA CS JOAN:MIRIAM 1988-10-18 03:00:00 TS 11.7650 -74.5150 main 74 74 P_____________ AL111988 11.7650 -74.5150 HU 67 988 1 10 264
1988285N09318 1988 92 NA CS JOAN:MIRIAM 1988-10-18 06:00:00 TS 11.7000 -75.0000 70 987 hurdat_atl main 79 79 O_____________ hurdat_atl AL111988 11.7000 -75.0000 HU 70 987 1 9 260
1988285N09318 1988 92 NA CS JOAN:MIRIAM 1988-10-18 09:00:00 TS 11.6074 -75.4225 main 86 84 P_____________ AL111988 11.6074 -75.4225 HU 72 985 1 8 256
1988285N09318 1988 92 NA CS JOAN:MIRIAM 1988-10-18 12:00:00 TS 11.5000 -75.8000 75 984 hurdat_atl main 95 95 O_____________ hurdat_atl AL111988 11.5000 -75.8000 HU 75 984 1 8 253
1988285N09318 1988 92 NA CS JOAN:MIRIAM 1988-10-18 15:00:00 TS 11.3924 -76.1575 main 117 117 P_____________ AL111988 11.3924 -76.1575 HU 77 982 1 7 254
1988285N09318 1988 92 NA CS JOAN:MIRIAM 1988-10-18 18:00:00 TS 11.3000 -76.5000 80 980 hurdat_atl main 134 134 O_____________ hurdat_atl AL111988 11.3000 -76.5000 HU 80 980 1 7 256
1988285N09318 1988 92 NA CS JOAN:MIRIAM 1988-10-18 21:00:00 TS 11.2275 -76.8575 main 167 167 P_____________ AL111988 11.2275 -76.8575 HU 85 978 2 7 262
1988285N09318 1988 92 NA CS JOAN:MIRIAM 1988-10-19 00:00:00 TS 11.2000 -77.2000 90 976 hurdat_atl main 196 196 O_____________ hurdat_atl AL111988 11.2000 -77.2000 HU 90 976 2 6 271
1988285N09318 1988 92 NA CS JOAN:MIRIAM 1988-10-19 03:00:00 TS 11.2350 -77.5150 main 226 226 P_____________ AL111988 11.2350 -77.5150 HU 92 973 2 6 280
1988285N09318 1988 92 NA CS JOAN:MIRIAM 1988-10-19 06:00:00 TS 11.3000 -77.8000 95 970 hurdat_atl main 230 226 O_____________ hurdat_atl AL111988 11.3000 -77.8000 HU 95 970 2 5 284
1988285N09318 1988 92 NA CS JOAN:MIRIAM 1988-10-19 09:00:00 TS 11.3649 -78.0500 main 237 230 P_____________ AL111988 11.3649 -78.0500 HU 100 965 3 5 282
1988285N09318 1988 92 NA CS JOAN:MIRIAM 1988-10-19 12:00:00 TS 11.4000 -78.3000 105 960 hurdat_atl main 230 219 O_____________ hurdat_atl AL111988 11.4000 -78.3000 HU 105 960 3 5 269
1988285N09318 1988 92 NA CS JOAN:MIRIAM 1988-10-19 15:00:00 TS 11.3575 -78.6076 main 219 202 P_____________ AL111988 11.3575 -78.6076 HU 107 956 3 6 260
1988285N09318 1988 92 NA CS JOAN:MIRIAM 1988-10-19 18:00:00 TS 11.3000 -78.9000 110 953 hurdat_atl main 202 201 O_____________ hurdat_atl AL111988 11.3000 -78.9000 HU 110 953 3 5 264
1988285N09318 1988 92 NA CS JOAN:MIRIAM 1988-10-19 21:00:00 TS 11.3074 -79.1074 main 201 201 P_____________ AL111988 11.3074 -79.1074 HU 107 954 3 4 270
1988285N09318 1988 92 NA CS JOAN:MIRIAM 1988-10-20 00:00:00 TS 11.3000 -79.3000 105 956 hurdat_atl main 201 190 O_____________ hurdat_atl AL111988 11.3000 -79.3000 HU 105 956 3 5 258
1988285N09318 1988 92 NA CS JOAN:MIRIAM 1988-10-20 03:00:00 TS 11.2001 -79.6026 main 190 179 P_____________ AL111988 11.2001 -79.6026 HU 95 961 2 5 248
1988285N09318 1988 92 NA CS JOAN:MIRIAM 1988-10-20 06:00:00 TS 11.1000 -79.8000 85 967 hurdat_atl main 179 179 O_____________ hurdat_atl AL111988 11.1000 -79.8000 HU 85 967 2 1 204
1988285N09318 1988 92 NA CS JOAN:MIRIAM 1988-10-20 09:00:00 TS 11.0700 -79.6575 main 179 179 P_____________ AL111988 11.0700 -79.6575 HU 77 969 1 3 90
1988285N09318 1988 92 NA CS JOAN:MIRIAM 1988-10-20 12:00:00 TS 11.1000 -79.5000 70 971 hurdat_atl main 179 179 O_____________ hurdat_atl AL111988 11.1000 -79.5000 HU 70 971 1 1 0
1988285N09318 1988 92 NA CS JOAN:MIRIAM 1988-10-20 15:00:00 TS 11.1850 -79.6475 main 190 190 P_____________ AL111988 11.1850 -79.6475 HU 70 972 1 4 297
1988285N09318 1988 92 NA CS JOAN:MIRIAM 1988-10-20 18:00:00 TS 11.3000 -79.9000 70 973 hurdat_atl main 202 202 O_____________ hurdat_atl AL111988 11.3000 -79.9000 HU 70 973 1 5 297
1988285N09318 1988 92 NA CS JOAN:MIRIAM 1988-10-20 21:00:00 TS 11.4150 -80.1000 main 217 217 P_____________ AL111988 11.4150 -80.1000 HU 72 972 1 4 297
1988285N09318 1988 92 NA CS JOAN:MIRIAM 1988-10-21 00:00:00 TS 11.5000 -80.3000 75 972 hurdat_atl main 233 233 O_____________ hurdat_atl AL111988 11.5000 -80.3000 HU 75 972 1 4 284
1988285N09318 1988 92 NA CS JOAN:MIRIAM 1988-10-21 03:00:00 TS 11.5075 -80.4926 main 240 240 P_____________ AL111988 11.5075 -80.4926 HU 82 971 1 4 270
1988285N09318 1988 92 NA CS JOAN:MIRIAM 1988-10-21 06:00:00 TS 11.5000 -80.7000 90 970 hurdat_atl main 249 249 O_____________ hurdat_atl AL111988 11.5000 -80.7000 HU 90 970 2 4 274
1988285N09318 1988 92 NA CS JOAN:MIRIAM 1988-10-21 09:00:00 TS 11.5350 -80.9350 main 259 259 P_____________ AL111988 11.5350 -80.9350 HU 95 967 2 5 282
1988285N09318 1988 92 NA CS JOAN:MIRIAM 1988-10-21 12:00:00 TS 11.6000 -81.2000 100 964 hurdat_atl main 261 229 O_____________ hurdat_atl AL111988 11.6000 -81.2000 HU 100 964 3 6 287
1988285N09318 1988 92 NA CS JOAN:MIRIAM 1988-10-21 15:00:00 TS 11.7000 -81.4850 main 229 196 P_____________ AL111988 11.7000 -81.4850 HU 105 958 3 6 289
1988285N09318 1988 92 NA CS JOAN:MIRIAM 1988-10-21 18:00:00 TS 11.8000 -81.8000 110 952 hurdat_atl main 196 162 O_____________ hurdat_atl AL111988 11.8000 -81.8000 HU 110 952 3 7 284
1988285N09318 1988 92 NA CS JOAN:MIRIAM 1988-10-21 21:00:00 TS 11.8650 -82.1425 main 162 122 P_____________ AL111988 11.8650 -82.1425 HU 115 944 4 7 278
1988285N09318 1988 92 NA CS JOAN:MIRIAM 1988-10-22 00:00:00 TS 11.9000 -82.5000 120 937 hurdat_atl main 122 93 O_____________ hurdat_atl AL111988 11.9000 -82.5000 HU 120 937 4 7 274
1988285N09318 1988 92 NA CS JOAN:MIRIAM 1988-10-22 03:00:00 TS 11.9070 -82.8455 main 93 55 P_____________ AL111988 11.9070 -82.8455 HU 122 934 4 7 270
1988285N09318 1988 92 NA CS JOAN:MIRIAM 1988-10-22 06:00:00 TS 11.9000 -83.2000 125 932 hurdat_atl main 55 15 O_____________ hurdat_atl AL111988 11.9000 -83.2000 HU 125 932 4 7 269
1988285N09318 1988 92 NA CS JOAN:MIRIAM 1988-10-22 09:00:00 TS 11.9000 -83.5841 main 15 10 P_____________ AL111988 11.9000 -83.5841 HU 125 932 4 7 270
1988285N09318 1988 92 NA CS JOAN:MIRIAM 1988-10-22 10:00:00 TS 11.9000 -83.7000 125 932 hurdat_atl main 10 0 O_____________ hurdat_atl AL111988 11.9000 -83.7000 L HU 125 932 4 6 270
1988285N09318 1988 92 NA CS JOAN:MIRIAM 1988-10-22 12:00:00 TS 11.9000 -83.9000 120 936 hurdat_atl main 0 0 O_____________ hurdat_atl AL111988 11.9000 -83.9000 HU 120 936 4 8 273
1988285N09318 1988 92 NA NA JOAN:MIRIAM 1988-10-22 15:00:00 TS 11.9385 -84.4047 main 0 0 P_____________ AL111988 11.9385 -84.4047 HU 95 959 2 11 275
1988285N09318 1988 92 NA NA JOAN:MIRIAM 1988-10-22 18:00:00 TS 12.0000 -85.0000 70 983 hurdat_atl main 0 0 O_____________ hurdat_atl AL111988 12.0000 -85.0000 HU 70 983 1 10 276
1988285N09318 1988 92 NA NA JOAN:MIRIAM 1988-10-22 21:00:00 TS 12.0498 -85.4650 main 0 0 P_____________ AL111988 12.0498 -85.4650 HU 62 988 0 9 276
1988285N09318 1988 92 NA NA JOAN:MIRIAM 1988-10-23 00:00:00 TS 12.1000 -85.9000 55 993 hurdat_atl main 0 0 O_____________ hurdat_atl AL111988 12.1000 -85.9000 TS 55 993 0 9 277
1988285N09318 1988 92 NA NA JOAN:MIRIAM 1988-10-23 03:00:00 TS 12.1502 -86.3450 main 0 0 P_____________ AL111988 12.1349 -86.3426 TS 50 996 0 9 276
1988285N09318 1988 92 EP MM JOAN:MIRIAM 1988-10-23 06:00:00 TS 12.2000 -86.8000 45 1000 hurdat_atl main 0 0 O_________O___ hurdat_atl AL111988 12.2000 -86.8000 TS 45 1000 0 12.2000 -86.8000 2 45 10 282
1988285N09318 1988 92 EP MM JOAN:MIRIAM 1988-10-23 09:00:00 TS 12.3500 -87.3074 main 24 15 P_________P___ AL111988 12.3350 -87.3000 TS 47 997 0 12.3494 -87.3076 2 47 10 287
1988285N09318 1988 92 EP MM JOAN:MIRIAM 1988-10-23 12:00:00 TS 12.5000 -87.8000 50 994 hurdat_epa main 46 46 O_________O___ hurdat_epa EP131988 12.5000 -87.8000 TS 50 994 0 12.5000 -87.8000 2 50 10 288
1988285N09318 1988 92 EP MM JOAN:MIRIAM 1988-10-23 15:00:00 TS 12.6507 -88.2650 main 55 44 P_________P___ EP131988 12.6499 -88.2650 TS 52 996 0 12.6532 -88.2647 2 52 9 289
1988285N09318 1988 92 EP MM JOAN:MIRIAM 1988-10-23 18:00:00 TS 12.8016 -88.7003 55 998 hurdat_epa main 44 33 O_________P___ hurdat_epa EP131988 12.8000 -88.7000 TS 55 998 0 12.8066 -88.7012 2 55 9 290
1988285N09318 1988 92 EP MM JOAN:MIRIAM 1988-10-23 21:00:00 TS 12.9516 -89.1143 main 39 39 P_________P___ EP131988 12.9499 -89.1150 TS 57 992 0 12.9567 -89.1121 2 57 8 291
1988285N09318 1988 92 EP MM JOAN:MIRIAM 1988-10-24 00:00:00 TS 13.1000 -89.5000 60 986 hurdat_epa main 44 33 O_________O___ hurdat_epa EP131988 13.1000 -89.5000 TS 60 986 0 13.1000 -89.5000 2 60 8 292
1988285N09318 1988 92 EP MM JOAN:MIRIAM 1988-10-24 03:00:00 TS 13.2521 -89.8631 main 24 24 P_________P___ EP131988 13.2574 -89.8575 TS 60 986 0 13.2360 -89.8798 2 58 8 293
1988285N09318 1988 92 EP MM JOAN:MIRIAM 1988-10-24 06:00:00 TS 13.3912 -90.2094 60 987 hurdat_epa main 39 39 O_________P___ hurdat_epa EP131988 13.4000 -90.2000 TS 60 987 0 13.3647 -90.2377 2 57 7 290
1988285N09318 1988 92 EP MM JOAN:MIRIAM 1988-10-24 09:00:00 TS 13.5021 -90.5623 main 44 33 P_________P___ EP131988 13.5075 -90.5576 TS 57 989 0 13.4861 -90.5767 2 56 7 287
1988285N09318 1988 92 EP MM JOAN:MIRIAM 1988-10-24 12:00:00 TS 13.6000 -90.9000 55 991 hurdat_epa main 33 22 O_________O___ hurdat_epa EP131988 13.6000 -90.9000 TS 55 991 0 13.6000 -90.9000 2 55 7 288
1988285N09318 1988 92 EP MM JOAN:MIRIAM 1988-10-24 15:00:00 TS 13.7058 -91.2082 main 22 11 P_________P___ EP131988 13.6999 -91.2075 TS 52 992 0 13.7232 -91.2103 2 53 6 290
1988285N09318 1988 92 EP MM JOAN:MIRIAM 1988-10-24 18:00:00 TS 13.8093 -91.5019 50 994 hurdat_epa main 24 22 O_________P___ hurdat_epa EP131988 13.8000 -91.5000 TS 50 994 0 13.8372 -91.5075 2 52 6 290
1988285N09318 1988 92 EP MM JOAN:MIRIAM 1988-10-24 21:00:00 TS 13.9137 -91.8002 main 31 24 P_________P___ EP131988 13.9075 -91.8000 TS 50 995 0 13.9326 -91.8009 2 51 6 288
1988285N09318 1988 92 EP MM JOAN:MIRIAM 1988-10-25 00:00:00 TS 14.0000 -92.1000 50 997 hurdat_epa main 39 39 O_________O___ hurdat_epa EP131988 14.0000 -92.1000 TS 50 997 0 14.0000 -92.1000 2 50 6 285
1988285N09318 1988 92 EP MM JOAN:MIRIAM 1988-10-25 03:00:00 TS 14.0676 -92.3998 main 49 49 P_________P___ EP131988 14.0724 -92.3925 TS 47 998 0 14.0531 -92.4218 2 47 6 279
1988285N09318 1988 92 EP MM JOAN:MIRIAM 1988-10-25 06:00:00 TS 14.0937 -92.7125 45 1000 hurdat_epa main 70 70 O_________P___ hurdat_epa EP131988 14.1000 -92.7000 TS 45 1000 0 14.0749 -92.7499 2 45 6 271
1988285N09318 1988 92 EP MM JOAN:MIRIAM 1988-10-25 09:00:00 TS 14.0748 -93.0570 main 101 101 P_________P___ EP131988 14.0800 -93.0500 TS 42 1001 0 14.0593 -93.0780 2 42 7 262
1988285N09318 1988 92 EP MM JOAN:MIRIAM 1988-10-25 12:00:00 TS 14.0000 -93.4000 40 1002 hurdat_epa main 132 132 O_________O___ hurdat_epa EP131988 14.0000 -93.4000 TS 40 1002 0 14.0000 -93.4000 2 40 7 252
1988285N09318 1988 92 EP MM JOAN:MIRIAM 1988-10-25 15:00:00 TS 13.8750 -93.7064 main 163 163 P_________P___ EP131988 13.8649 -93.7075 TS 37 1002 0 13.9051 -93.7032 2 37 6 244
1988285N09318 1988 92 EP MM JOAN:MIRIAM 1988-10-25 18:00:00 TS 13.7168 -94.0000 35 1003 hurdat_epa main 202 202 O_________P___ hurdat_epa EP131988 13.7000 -94.0000 TS 35 1003 0 13.7672 -94.0000 2 35 7 242
1988285N09318 1988 92 EP MM JOAN:MIRIAM 1988-10-25 21:00:00 TS 13.5670 -94.2992 main 233 233 P_________P___ EP131988 13.5575 -94.2999 TS 32 1003 -1 13.5957 -94.2968 2 32 7 241
1988285N09318 1988 92 EP MM JOAN:MIRIAM 1988-10-26 00:00:00 TS 13.4000 -94.6000 30 1004 hurdat_epa main 271 271 O_________O___ hurdat_epa EP131988 13.4000 -94.6000 TD 30 1004 -1 13.4000 -94.6000 1 30 7 239
1988285N09318 1988 92 EP MM JOAN:MIRIAM 1988-10-26 03:00:00 TS 13.2073 -94.9019 main 310 308 P_________P___ EP131988 13.2149 -94.8924 TD 30 1004 -1 13.1844 -94.9302 1 30 7 236
1988285N09318 1988 92 EP MM JOAN:MIRIAM 1988-10-26 06:00:00 TS 12.9875 -95.2163 30 1005 hurdat_epa main 320 317 O_________P___ hurdat_epa EP131988 13.0000 -95.2000 TD 30 1005 -1 12.9501 -95.2652 1 30 8 234
1988285N09318 1988 92 EP MM JOAN:MIRIAM 1988-10-26 09:00:00 TS 12.7358 -95.5720 main 342 338 P_________P___ EP131988 12.7426 -95.5651 TD 30 1005 -1 12.7157 -95.5927 1 30 8 234
1988285N09318 1988 92 EP MM JOAN:MIRIAM 1988-10-26 12:00:00 TS 12.5000 -95.9000 30 1005 hurdat_epa main 355 353 O_________O___ hurdat_epa EP131988 12.5000 -95.9000 TD 30 1005 -1 12.5000 -95.9000 1 30 7 233
1988285N09318 1988 92 EP MM JOAN:MIRIAM 1988-10-26 15:00:00 TS 12.3281 -96.1193 main 373 371 P_________P___ EP131988 12.3349 -96.1074 TD 30 1005 -1 12.3078 -96.1551 1 30 5 233
1988285N09318 1988 92 EP MM JOAN:MIRIAM 1988-10-26 18:00:00 TS 12.1849 -96.3231 30 1005 hurdat_epa main 382 381 O_________P___ hurdat_epa EP131988 12.2000 -96.3000 TD 30 1005 -1 12.1396 -96.3923 1 30 6 237
1988285N09318 1988 92 EP MM JOAN:MIRIAM 1988-10-26 21:00:00 TS 12.0266 -96.5915 main 403 403 P_________P___ EP131988 12.0350 -96.5775 TD 30 1005 -1 12.0016 -96.6334 1 30 6 243
1988285N09318 1988 92 EP MM JOAN:MIRIAM 1988-10-27 00:00:00 TS 11.9000 -96.9000 30 1005 hurdat_epa main 415 415 O_________O___ hurdat_epa EP131988 11.9000 -96.9000 TD 30 1005 -1 11.9000 -96.9000 1 30 7 253
1988285N09318 1988 92 EP MM JOAN:MIRIAM 1988-10-27 03:00:00 TS 11.8284 -97.2392 main 430 430 P_________P___ EP131988 11.8275 -97.2425 TD 30 1005 -1 11.8310 -97.2293 1 30 7 262
1988285N09318 1988 92 EP MM JOAN:MIRIAM 1988-10-27 06:00:00 TS 11.7994 -97.5962 30 1005 hurdat_epa main 438 438 O_________P___ hurdat_epa EP131988 11.8000 -97.6000 TD 30 1005 -1 11.7976 -97.5849 1 30 7 267
1988285N09318 1988 92 EP MM JOAN:MIRIAM 1988-10-27 09:00:00 TS 11.7920 -97.9551 main 451 451 P_________P___ EP131988 11.7925 -97.9575 TD 30 1005 -1 11.7904 -97.9481 1 30 7 270
1988285N09318 1988 92 EP MM JOAN:MIRIAM 1988-10-27 12:00:00 TS 11.8000 -98.3000 30 1005 hurdat_epa main 463 463 O_________O___ hurdat_epa EP131988 11.8000 -98.3000 TD 30 1005 -1 11.8000 -98.3000 1 30 6 270
1988285N09318 1988 92 EP MM JOAN:MIRIAM 1988-10-27 15:00:00 TS 11.7970 -98.6113 main 477 477 P_________P___ EP131988 11.7924 -98.6075 TD 27 1005 -1 11.8105 -98.6224 1 28 6 271
1988285N09318 1988 92 EP MM JOAN:MIRIAM 1988-10-27 18:00:00 TS 11.8087 -98.9075 25 1006 hurdat_epa main 484 484 O_________P___ hurdat_epa EP131988 11.8000 -98.9000 TD 25 1006 -1 11.8349 -98.9299 1 27 6 275
1988285N09318 1988 92 EP MM JOAN:MIRIAM 1988-10-27 21:00:00 TS 11.8486 -99.2112 main 493 483 P_________P___ EP131988 11.8425 -99.2075 TD 25 1006 -1 11.8668 -99.2224 1 26 6 279
1988285N09318 1988 92 EP MM JOAN:MIRIAM 1988-10-28 00:00:00 TS 11.9000 -99.5000 25 1007 hurdat_epa main 494 494 O_________O___ hurdat_epa EP131988 11.9000 -99.5000 TD 25 1007 -1 11.9000 -99.5000 1 25 5 281
1988285N09318 1988 92 EP MM JOAN:MIRIAM 1988-10-28 03:00:00 TS 11.9492 -99.7481 main 502 497 P_________P___ EP131988 11.9575 -99.7575 TD 25 1008 -1 11.9245 -99.7198 1 23 5 280
1988285N09318 1988 92 EP MM JOAN:MIRIAM 1988-10-28 06:00:00 TS 11.9873 -99.9832 25 1009 hurdat_epa main 504 504 O_________P___ hurdat_epa EP131988 12.0000 -100.000 TD 25 1009 -1 11.9492 -99.9326 1 22 4 276
1988285N09318 1988 92 EP MM JOAN:MIRIAM 1988-10-28 09:00:00 TS 11.9991 -100.199 main 511 511 P_________P___ EP131988 12.0073 -100.205 TD 22 1009 -1 11.9744 -100.179 1 21 5 271
1988285N09318 1988 92 EP MM JOAN:MIRIAM 1988-10-28 12:00:00 TS 12.0000 -100.500 20 1010 hurdat_epa main 523 523 O_________O___ hurdat_epa EP131988 12.0000 -100.500 TD 20 1010 -1 12.0000 -100.500 1 20 8 270
1988285N09318 1988 92 EP MM JOAN:MIRIAM 1988-10-28 15:00:00 TS 11.9998 -100.995 main 544 544 P_________P___ EP131988 11.9926 -101.013 TD 15 -1 12.0212 -100.942 1 17 10 271
1988285N09318 1988 92 EP MM JOAN:MIRIAM 1988-10-28 18:00:00 DS 12.0107 -101.565 10 hurdat_epa main 564 564 O_________P___ hurdat_epa EP131988 12.0000 -101.600 LO 10 -3 12.0428 -101.460 1 15 11 273
1988285N09318 1988 92 EP MM JOAN:MIRIAM 1988-10-28 21:00:00 DS 12.0487 -102.081 main 586 576 P_________P___ EP131988 12.0423 -102.100 LO 10 -3 12.0679 -102.023 1 12 10 275
1988285N09318 1988 92 EP MM JOAN:MIRIAM 1988-10-29 00:00:00 DS 12.1000 -102.600 10 hurdat_epa main 602 602 O_________O___ hurdat_epa EP131988 12.1000 -102.600 LO 10 -3 12.1000 -102.600 1 10 10 275
1988285N09318 1988 92 EP MM JOAN:MIRIAM 1988-10-29 03:00:00 DS 12.1471 -103.144 main 620 613 P_________P___ EP131988 12.1499 -103.143 LO 10 -3 12.1386 -103.147 1 10 11 275
1988285N09318 1988 92 EP MM JOAN:MIRIAM 1988-10-29 06:00:00 DS 12.1962 -103.700 10 hurdat_epa main 635 635 O_________P___ hurdat_epa EP131988 12.2000 -103.700 LO 10 -3 12.1847 -103.700 1 10 11 275
1988285N09318 1988 92 EP MM JOAN:MIRIAM 1988-10-29 09:00:00 DS 12.2471 -104.256 main 666 657 P_________P___ EP131988 12.2499 -104.258 LO 10 -3 12.2386 -104.253 1 10 11 276
1988285N09318 1988 92 EP MM JOAN:MIRIAM 1988-10-29 12:00:00 DS 12.3000 -104.800 10 hurdat_epa main 680 680 O_________O___ hurdat_epa EP131988 12.3000 -104.800 LO 10 -3 12.3000 -104.800 1 10 10 276
1988285N09318 1988 92 EP MM JOAN:MIRIAM 1988-10-29 15:00:00 DS 12.3486 -105.308 main 697 687 P_________P___ EP131988 12.3423 -105.300 LO 10 -3 12.3674 -105.332 1 10 10 276
1988285N09318 1988 92 EP MM JOAN:MIRIAM 1988-10-29 18:00:00 DS 12.4105 -105.814 10 hurdat_epa main 704 704 O_________P___ hurdat_epa EP131988 12.4000 -105.800 LO 10 -3 12.4420 -105.858 1 10 10 279
1988285N09318 1988 92 EP MM JOAN:MIRIAM 1988-10-29 21:00:00 DS 12.5051 -106.352 main 719 719 P_________P___ EP131988 12.4999 -106.342 LO 10 -3 12.5206 -106.379 1 10 11 280
1988285N09318 1988 92 EP MM JOAN:MIRIAM 1988-10-30 00:00:00 DS 12.6000 -106.900 10 hurdat_epa main 734 734 O_________O___ hurdat_epa EP131988 12.6000 -106.900 LO 10 -3 12.6000 -106.900 1 10 11 278
1988285N09318 1988 92 EP MM JOAN:MIRIAM 1988-10-30 03:00:00 DS 12.6479 -107.446 main 762 759 P_________P___ EP131988 12.6499 -107.458 LO 10 -3 12.6420 -107.409 1 12 11 275
1988285N09318 1988 92 EP MM JOAN:MIRIAM 1988-10-30 06:00:00 DS 12.6973 -107.980 10 hurdat_epa main 790 790 O_________P___ hurdat_epa EP131988 12.7000 -108.000 LO 10 -3 12.6892 -107.921 1 15 10 277
1988285N09318 1988 92 EP MM JOAN:MIRIAM 1988-10-30 09:00:00 DS 12.7690 -108.476 main 815 815 P_________P___ EP131988 12.7697 -108.485 LO 15 -3 12.7669 -108.447 1 17 10 282
1988285N09318 1988 92 EP MM JOAN:MIRIAM 1988-10-30 12:00:00 TS 12.9000 -109.000 20 1008 hurdat_epa main 835 835 O_________O___ hurdat_epa EP131988 12.9000 -109.000 TD 20 1008 -1 12.9000 -109.000 1 20 12 287
1988285N09318 1988 92 EP MM JOAN:MIRIAM 1988-10-30 15:00:00 TS 13.1185 -109.634 main 853 851 P_________P___ EP131988 13.1201 -109.635 TD 22 1007 -1 13.1139 -109.632 1 21 14 291
1988285N09318 1988 92 EP MM JOAN:MIRIAM 1988-10-30 18:00:00 TS 13.3958 -110.297 25 1007 hurdat_epa main 875 873 O_________P___ hurdat_epa EP131988 13.4000 -110.300 TD 25 1007 -1 13.3832 -110.287 1 22 14 294
1988285N09318 1988 92 EP MM JOAN:MIRIAM 1988-10-30 21:00:00 TS 13.6908 -110.934 main 895 895 P_________P___ EP131988 13.6925 -110.937 TD 25 1007 -1 13.6858 -110.923 1 23 13 297
1988285N09318 1988 92 EP MM JOAN:MIRIAM 1988-10-31 00:00:00 TS 14.0000 -111.500 25 1007 hurdat_epa main 917 917 O_________O___ hurdat_epa EP131988 14.0000 -111.500 TD 25 1007 -1 14.0000 -111.500 1 25 12 302
1988285N09318 1988 92 EP MM JOAN:MIRIAM 1988-10-31 03:00:00 TS 14.2979 -111.945 main 925 925 P_________P___ EP131988 14.2998 -111.930 TD 25 1006 -1 14.2922 -111.989 1 26 10 307
1988285N09318 1988 92 EP MM JOAN:MIRIAM 1988-10-31 06:00:00 TS 14.5979 -112.328 25 1006 hurdat_epa main 937 937 O_________P___ hurdat_epa EP131988 14.6000 -112.300 TD 25 1006 -1 14.5918 -112.413 1 27 10 308
1988285N09318 1988 92 EP MM JOAN:MIRIAM 1988-10-31 09:00:00 TS 14.8989 -112.737 main 938 920 P_________P___ EP131988 14.9000 -112.723 TD 27 1006 -1 14.8955 -112.780 1 28 10 309
1988285N09318 1988 92 EP MM JOAN:MIRIAM 1988-10-31 12:00:00 TS 15.2000 -113.100 30 1006 hurdat_epa main 920 897 O_________O___ hurdat_epa EP131988 15.2000 -113.100 TD 30 1006 -1 15.2000 -113.100 1 30 9 315
1988285N09318 1988 92 EP MM JOAN:MIRIAM 1988-10-31 15:00:00 TS 15.5038 -113.374 main 901 879 P_________P___ EP131988 15.4999 -113.373 TD 30 1006 -1 15.5157 -113.377 1 30 8 321
1988285N09318 1988 92 EP MM JOAN:MIRIAM 1988-10-31 18:00:00 TS 15.8073 -113.604 30 1006 hurdat_epa main 879 858 O_________P___ hurdat_epa EP131988 15.8000 -113.600 TD 30 1006 -1 15.8293 -113.616 1 30 8 324
1988285N09318 1988 92 EP MM JOAN:MIRIAM 1988-10-31 21:00:00 TS 16.1182 -113.838 main 858 843 P_________P___ EP131988 16.1149 -113.835 TD 30 1006 -1 16.1282 -113.846 1 30 8 321
1988285N09318 1988 92 EP MM JOAN:MIRIAM 1988-11-01 00:00:00 TS 16.4000 -114.100 30 1006 hurdat_epa main 844 835 O_________O___ hurdat_epa EP131988 16.4000 -114.100 TD 30 1006 -1 16.4000 -114.100 1 30 8 311
1988285N09318 1988 92 EP MM JOAN:MIRIAM 1988-11-01 03:00:00 TS 16.6195 -114.432 main 841 837 P_________P___ EP131988 16.6150 -114.435 TD 30 1006 -1 16.6328 -114.421 1 30 8 302
1988285N09318 1988 92 EP MM JOAN:MIRIAM 1988-11-01 06:00:00 TS 16.8094 -114.793 30 1006 hurdat_epa main 846 841 O_________P___ hurdat_epa EP131988 16.8000 -114.800 TD 30 1006 -1 16.8375 -114.770 1 30 8 299
1988285N09318 1988 92 EP MM JOAN:MIRIAM 1988-11-01 09:00:00 TS 17.0058 -115.146 main 848 845 P_________P___ EP131988 16.9999 -115.150 TD 30 1006 -1 17.0234 -115.134 1 30 8 300
1988285N09318 1988 92 EP MM JOAN:MIRIAM 1988-11-01 12:00:00 TS 17.2000 -115.500 30 1006 hurdat_epa main 857 856 O_________O___ hurdat_epa EP131988 17.2000 -115.500 TD 30 1006 -1 17.2000 -115.500 1 30 8 301
1988285N09318 1988 92 EP MM JOAN:MIRIAM 1988-11-01 15:00:00 TS 17.4031 -115.850 main 870 862 P_________P___ EP131988 17.4074 -115.850 TD 30 1006 -1 17.3901 -115.850 1 30 8 300
1988285N09318 1988 92 EP MM JOAN:MIRIAM 1988-11-01 18:00:00 TS 17.5931 -116.200 30 1006 hurdat_epa main 877 877 O_________P___ hurdat_epa EP131988 17.6000 -116.200 TD 30 1006 -1 17.5722 -116.200 1 30 8 298
1988285N09318 1988 92 EP MM JOAN:MIRIAM 1988-11-01 21:00:00 TS 17.7539 -116.550 main 893 893 P_________P___ EP131988 17.7574 -116.550 TD 30 1006 -1 17.7432 -116.550 1 30 7 295
1988285N09318 1988 92 EP MM JOAN:MIRIAM 1988-11-02 00:00:00 TS 17.9000 -116.900 30 1007 hurdat_epa main 907 904 O_________O___ hurdat_epa EP131988 17.9000 -116.900 TD 30 1007 -1 17.9000 -116.900 1 30 7 294
1988285N09318 1988 92 EP MM JOAN:MIRIAM 1988-11-02 03:00:00 TS 18.0532 -117.250 main 907 907 P_________P___ EP131988 18.0574 -117.250 TD 30 1007 -1 18.0406 -117.250 1 28 7 294
1988285N09318 1988 92 EP MM JOAN:MIRIAM 1988-11-02 06:00:00 TS 18.1920 -117.600 30 1008 hurdat_epa main 922 922 O_________P___ hurdat_epa EP131988 18.2000 -117.600 TD 30 1008 -1 18.1680 -117.600 1 27 7 291
1988285N09318 1988 92 EP MM JOAN:MIRIAM 1988-11-02 09:00:00 TS 18.3042 -117.950 main 933 933 P_________P___ EP131988 18.3101 -117.950 TD 27 1009 -1 18.2864 -117.950 1 26 7 287
1988285N09318 1988 92 EP MM JOAN:MIRIAM 1988-11-02 12:00:00 TS 18.4000 -118.300 25 1010 hurdat_epa main 952 O_________O___ hurdat_epa EP131988 18.4000 -118.300 TD 25 1010 -1 18.4000 -118.300 1 25 7 286

About IBTrACS Database

This database is a web-friendly format of International Best Track Archive for Climate Stewardship (IBTrACS), a global best track data archive curated by NOAA dating back to 1842.

Updated: 2021-12-03